createdAt,value
2022-09-24T00:04:32.513Z,13.94
2022-09-24T00:09:37.545Z,13.90
2022-09-24T00:14:41.421Z,13.83
2022-09-24T00:19:45.124Z,13.83
2022-09-24T00:25:07.753Z,13.75
2022-09-24T00:30:12.466Z,13.77
2022-09-24T00:35:16.691Z,13.73
2022-09-24T00:40:21.871Z,13.77
2022-09-24T00:45:27.658Z,13.78
2022-09-24T00:50:34.075Z,13.66
2022-09-24T00:55:43.804Z,13.62
2022-09-24T01:00:47.587Z,13.60
2022-09-24T01:05:52.240Z,13.59
2022-09-24T01:11:12.597Z,13.58
2022-09-24T01:16:23.733Z,13.61
2022-09-24T01:21:37.237Z,13.60
2022-09-24T01:26:55.627Z,13.63
2022-09-24T01:32:03.563Z,13.60
2022-09-24T01:37:07.961Z,13.55
2022-09-24T01:42:13.320Z,13.49
2022-09-24T01:47:25.573Z,13.55
2022-09-24T01:52:33.009Z,13.58
2022-09-24T01:57:42.231Z,13.65
2022-09-24T02:02:51.283Z,13.57
2022-09-24T02:08:02.359Z,13.54
2022-09-24T02:13:13.336Z,13.56
2022-09-24T02:18:21.769Z,13.51
2022-09-24T02:23:27.132Z,13.50
2022-09-24T02:28:32.383Z,13.54
2022-09-24T02:34:00.037Z,13.47
2022-09-24T02:39:04.356Z,13.48
2022-09-24T02:44:08.107Z,13.45
2022-09-24T02:49:14.164Z,13.43
2022-09-24T02:54:17.947Z,13.42
2022-09-24T02:59:21.723Z,13.35
2022-09-24T03:04:26.940Z,13.32
2022-09-24T03:09:31.196Z,13.34
2022-09-24T03:14:34.870Z,13.35
2022-09-24T03:19:40.075Z,13.32
2022-09-24T03:24:43.802Z,13.29
2022-09-24T03:30:05.256Z,13.26
2022-09-24T03:35:11.916Z,13.14
2022-09-24T03:40:15.804Z,13.01
2022-09-24T03:45:19.543Z,13.14
2022-09-24T03:50:24.616Z,13.14
2022-09-24T03:55:28.353Z,13.15
2022-09-24T04:00:32.083Z,13.11
2022-09-24T04:05:37.758Z,13.08
2022-09-24T04:10:41.434Z,12.97
2022-09-24T04:15:45.176Z,13.10
2022-09-24T04:20:50.717Z,13.16
2022-09-24T04:25:55.249Z,13.12
2022-09-24T04:30:59.749Z,13.03
2022-09-24T04:36:05.164Z,13.08
2022-09-24T04:41:10.098Z,12.98
2022-09-24T04:46:14.451Z,12.99
2022-09-24T04:51:21.336Z,12.95
2022-09-24T04:56:24.997Z,13.01
2022-09-24T05:01:29.143Z,13.04
2022-09-24T05:06:34.270Z,13.08
2022-09-24T05:11:37.973Z,13.06
2022-09-24T05:16:41.732Z,13.01
2022-09-24T05:21:47.021Z,12.96
2022-09-24T05:27:08.499Z,13.00
2022-09-24T05:32:15.181Z,12.97
2022-09-24T05:37:20.663Z,13.07
2022-09-24T05:42:24.404Z,13.10
2022-09-24T05:47:28.211Z,12.99
2022-09-24T05:52:33.313Z,13.02
2022-09-24T05:57:37.343Z,13.07
2022-09-24T06:02:41.172Z,13.05
2022-09-24T06:07:46.171Z,12.99
2022-09-24T06:12:50.533Z,13.01
2022-09-24T06:17:55.256Z,13.10
2022-09-24T06:23:00.701Z,13.10
2022-09-24T06:28:05.812Z,13.18
2022-09-24T06:33:11.121Z,13.17
2022-09-24T06:38:20.187Z,13.19
2022-09-24T06:43:23.852Z,13.07
2022-09-24T06:48:28.826Z,13.16
2022-09-24T06:53:33.960Z,13.15
2022-09-24T06:58:37.620Z,13.19
2022-09-24T07:03:41.383Z,13.26
2022-09-24T07:08:50.933Z,13.26
2022-09-24T07:13:54.647Z,13.23
2022-09-24T07:18:58.596Z,13.26
2022-09-24T07:24:04.237Z,13.28
2022-09-24T07:29:07.975Z,13.14
2022-09-24T07:34:11.999Z,13.24
2022-09-24T07:39:17.672Z,13.17
2022-09-24T07:44:23.047Z,13.08
2022-09-24T07:49:29.014Z,13.19
2022-09-24T07:54:34.227Z,13.28
2022-09-24T07:59:37.921Z,13.25
2022-09-24T08:04:41.621Z,13.28
2022-09-24T08:09:46.704Z,13.26
2022-09-24T08:14:51.697Z,13.35
2022-09-24T08:19:57.100Z,13.34
2022-09-24T08:25:03.307Z,13.30
2022-09-24T08:30:08.607Z,13.35
2022-09-24T08:35:12.425Z,13.26
2022-09-24T08:40:21.359Z,13.34
2022-09-24T08:45:42.870Z,13.27
2022-09-24T08:50:52.288Z,13.26
2022-09-24T08:56:00.250Z,13.36
2022-09-24T09:01:15.048Z,13.28
2022-09-24T09:06:41.933Z,13.31
2022-09-24T09:11:50.163Z,13.29
2022-09-24T09:16:58.630Z,13.36
2022-09-24T09:22:05.722Z,13.41
2022-09-24T09:27:15.367Z,13.50
2022-09-24T09:32:31.531Z,13.43
2022-09-24T09:37:45.496Z,13.53
2022-09-24T09:42:50.776Z,13.55
2022-09-24T09:47:57.202Z,13.61
2022-09-24T09:53:02.259Z,13.65
2022-09-24T09:58:20.608Z,13.72
2022-09-24T10:03:28.773Z,13.75
2022-09-24T10:08:33.573Z,13.74
2022-09-24T10:13:38.624Z,13.73
2022-09-24T10:18:46.640Z,13.76
2022-09-24T10:23:50.336Z,13.70
2022-09-24T10:29:13.412Z,13.83
2022-09-24T10:34:23.782Z,14.02
2022-09-24T10:39:27.563Z,14.13
2022-09-24T10:44:37.287Z,14.24
2022-09-24T10:49:55.035Z,14.18
2022-09-24T10:55:11.766Z,14.28
2022-09-24T11:00:21.690Z,14.32
2022-09-24T11:05:29.339Z,14.21
2022-09-24T11:10:53.381Z,14.16
2022-09-24T11:16:20.834Z,14.17
2022-09-24T11:21:34.412Z,14.23
2022-09-24T11:26:58.796Z,14.37
2022-09-24T11:32:13.855Z,14.39
2022-09-24T11:37:29.501Z,14.48
2022-09-24T11:42:40.198Z,14.45
2022-09-24T11:47:58.890Z,14.41
2022-09-24T11:53:07.934Z,14.43
2022-09-24T11:58:17.999Z,14.39
2022-09-24T12:03:26.674Z,14.44
2022-09-24T12:08:38.117Z,14.20
2022-09-24T12:13:46.993Z,14.33
2022-09-24T12:18:57.577Z,14.41
2022-09-24T12:24:05.219Z,14.39
2022-09-24T12:29:52.039Z,14.20
2022-09-24T12:35:03.299Z,14.23
2022-09-24T12:40:25.085Z,14.23
2022-09-24T12:45:29.472Z,14.21
2022-09-24T12:50:36.979Z,14.27
2022-09-24T12:55:47.089Z,14.25
2022-09-24T13:00:53.449Z,14.29
2022-09-24T13:06:00.267Z,14.42
2022-09-24T13:11:06.884Z,14.30
2022-09-24T13:16:19.905Z,14.35
2022-09-24T13:21:27.858Z,14.43
2022-09-24T13:26:34.933Z,14.59
2022-09-24T13:31:47.861Z,14.67
2022-09-24T13:36:58.938Z,14.64
2022-09-24T13:42:08.580Z,14.47
2022-09-24T13:47:16.533Z,14.56
2022-09-24T13:52:30.589Z,14.62
2022-09-24T13:57:44.565Z,14.59
2022-09-24T14:03:02.763Z,14.53
2022-09-24T14:08:09.636Z,14.55
2022-09-24T14:13:19.210Z,14.47
2022-09-24T14:18:24.409Z,14.58
2022-09-24T14:23:34.360Z,14.60
2022-09-24T14:28:38.323Z,14.64
2022-09-24T14:33:42.197Z,14.70
2022-09-24T14:38:53.928Z,14.74
2022-09-24T14:44:01.317Z,14.77
2022-09-24T14:49:06.528Z,14.77
2022-09-24T14:54:28.390Z,14.79
2022-09-24T14:59:37.297Z,14.76
2022-09-24T15:04:40.995Z,14.66
2022-09-24T15:09:50.545Z,14.66
2022-09-24T15:14:56.522Z,14.64
2022-09-24T15:20:00.779Z,14.66
2022-09-24T15:25:07.220Z,14.65
2022-09-24T15:30:14.140Z,14.65
2022-09-24T15:35:18.314Z,14.62
2022-09-24T15:40:26.452Z,14.56
2022-09-24T15:45:30.966Z,14.51
2022-09-24T15:50:34.879Z,14.37
2022-09-24T15:55:40.267Z,14.37
2022-09-24T16:00:44.380Z,14.31
2022-09-24T16:05:48.839Z,14.31
2022-09-24T16:10:54.777Z,14.31
2022-09-24T16:16:03.136Z,14.24
2022-09-24T16:21:09.597Z,14.30
2022-09-24T16:26:14.690Z,14.27
2022-09-24T16:31:18.841Z,14.28
2022-09-24T16:36:23.861Z,14.25
2022-09-24T16:41:34.313Z,14.25
2022-09-24T16:46:38.093Z,14.26
2022-09-24T16:51:41.994Z,14.23
2022-09-24T16:56:49.376Z,14.23
2022-09-24T17:01:54.010Z,14.16
2022-09-24T17:06:58.187Z,14.02
2022-09-24T17:12:03.379Z,13.90
2022-09-24T17:17:07.565Z,13.86
2022-09-24T17:22:11.285Z,13.82
2022-09-24T17:27:16.360Z,13.83
2022-09-24T17:32:20.295Z,13.86
2022-09-24T17:37:24.440Z,13.81
2022-09-24T17:42:31.615Z,13.82
2022-09-24T17:47:49.312Z,13.80
2022-09-24T17:52:53.070Z,13.79
2022-09-24T17:57:58.179Z,13.75
2022-09-24T18:03:01.898Z,13.72
2022-09-24T18:08:06.104Z,13.74
2022-09-24T18:13:11.146Z,13.70
2022-09-24T18:18:14.852Z,13.72
2022-09-24T18:23:18.737Z,13.70
2022-09-24T18:28:24.277Z,13.69
2022-09-24T18:33:28.073Z,13.66
2022-09-24T18:38:32.719Z,13.63
2022-09-24T18:43:37.898Z,13.63
2022-09-24T18:48:43.826Z,13.62
2022-09-24T18:53:52.938Z,13.62
2022-09-24T18:58:58.691Z,13.63
2022-09-24T19:04:03.114Z,13.63
2022-09-24T19:09:07.273Z,13.61
2022-09-24T19:14:13.641Z,13.62
2022-09-24T19:19:17.443Z,13.61
2022-09-24T19:24:21.268Z,13.61
2022-09-24T19:29:26.403Z,13.59
2022-09-24T19:34:30.112Z,13.56
2022-09-24T19:39:33.852Z,13.59
2022-09-24T19:44:38.951Z,13.56
2022-09-24T19:49:42.652Z,13.57
2022-09-24T19:54:49.495Z,13.52
2022-09-24T19:59:55.340Z,13.52
2022-09-24T20:04:59.064Z,13.52
2022-09-24T20:10:02.894Z,13.49
2022-09-24T20:15:09.982Z,13.44
2022-09-24T20:20:14.148Z,13.39
2022-09-24T20:25:18.134Z,13.40
2022-09-24T20:30:23.798Z,13.34
2022-09-24T20:35:27.550Z,13.32
2022-09-24T20:40:31.328Z,13.28
2022-09-24T20:45:41.255Z,13.20
2022-09-24T20:50:44.931Z,13.22
2022-09-24T20:55:48.642Z,13.19
2022-09-24T21:00:55.410Z,13.16
2022-09-24T21:06:03.985Z,13.16
2022-09-24T21:11:09.861Z,13.12
2022-09-24T21:16:17.566Z,13.08
2022-09-24T21:21:23.080Z,13.04
2022-09-24T21:26:28.551Z,13.01
2022-09-24T21:31:35.038Z,12.99
2022-09-24T21:36:44.523Z,12.94
2022-09-24T21:41:53.194Z,12.94
2022-09-24T21:46:58.072Z,12.93
2022-09-24T21:52:04.975Z,12.82
2022-09-24T21:57:08.656Z,12.88
2022-09-24T22:02:15.497Z,12.86
2022-09-24T22:07:20.027Z,12.82
2022-09-24T22:12:23.683Z,12.78
2022-09-24T22:17:28.696Z,12.77
2022-09-24T22:22:32.379Z,12.74
2022-09-24T22:27:36.080Z,12.73
2022-09-24T22:32:41.131Z,12.70
2022-09-24T22:37:44.793Z,12.70
2022-09-24T22:42:48.471Z,12.66
2022-09-24T22:47:56.722Z,12.63
2022-09-24T22:53:01.892Z,12.52
2022-09-24T22:58:05.580Z,12.48
2022-09-24T23:03:10.775Z,12.45
2022-09-24T23:08:14.528Z,12.41
2022-09-24T23:13:18.485Z,12.33
2022-09-24T23:18:23.507Z,12.32
2022-09-24T23:23:27.177Z,12.22
2022-09-24T23:28:30.960Z,12.12
2022-09-24T23:33:39.355Z,12.07
2022-09-24T23:38:42.871Z,12.00
2022-09-24T23:43:46.406Z,11.92
2022-09-24T23:48:51.452Z,11.88
2022-09-24T23:53:55.272Z,11.80
2022-09-24T23:58:59.012Z,11.66
